Time;durP1;ratioP1;P1;durP2;ratioP2;P2;SDS_P1;SDS_P2;PMS_P1;PMS_P2;Temp;Humidity;BMP_temperature;BMP_pressure;BME280_temperature;BME280_humidity;BME280_pressure;Samples;Min_cycle;Max_cycle;Signal;HPM_P1;HPM_P2
2023/12/15 00:00:04;;;;;;;39.35;22.30;;;7.30;99.90;;;;;;5004149;28;20536;-49
2023/12/15 00:02:37;;;;;;;38.72;22.52;;;7.30;99.90;;;;;;5005085;28;20195;-44
2023/12/15 00:05:03;;;;;;;36.80;21.65;;;7.20;99.90;;;;;;5005433;28;20196;-41
2023/12/15 00:07:29;;;;;;;42.17;23.52;;;7.20;99.90;;;;;;5005841;28;20387;-45
2023/12/15 00:09:55;;;;;;;36.60;21.20;;;7.20;99.90;;;;;;5005361;28;20720;-47
2023/12/15 00:12:21;;;;;;;40.40;22.85;;;7.20;99.90;;;;;;5004692;28;20234;-44
2023/12/15 00:14:47;;;;;;;37.00;22.42;;;7.20;99.90;;;;;;5005396;28;20188;-45
2023/12/15 00:17:13;;;;;;;39.85;22.67;;;7.30;99.90;;;;;;5002995;28;20660;-43
2023/12/15 00:19:39;;;;;;;39.00;23.17;;;7.20;99.90;;;;;;5005248;28;20193;-49
2023/12/15 00:22:05;;;;;;;41.25;23.08;;;7.20;99.90;;;;;;5005144;28;20639;-46
2023/12/15 00:24:30;;;;;;;42.53;24.08;;;7.30;99.90;;;;;;5004563;28;20731;-48
2023/12/15 00:26:58;;;;;;;38.38;23.40;;;7.30;99.90;;;;;;5004455;28;20228;-46
2023/12/15 00:29:25;;;;;;;41.30;22.10;;;7.30;99.90;;;;;;5005394;28;20728;-42
2023/12/15 00:31:51;;;;;;;35.50;22.50;;;7.30;99.90;;;;;;5005033;28;20542;-43
2023/12/15 00:34:16;;;;;;;39.45;22.50;;;7.30;99.90;;;;;;5004752;28;20272;-47
2023/12/15 00:36:43;;;;;;;39.00;23.92;;;7.30;99.90;;;;;;5004488;28;20203;-46
2023/12/15 00:39:09;;;;;;;39.65;24.73;;;7.40;99.90;;;;;;5019939;28;20671;-47
2023/12/15 00:41:34;;;;;;;37.28;23.73;;;7.30;99.90;;;;;;5004814;28;20192;-43
2023/12/15 00:44:03;;;;;;;38.85;23.90;;;7.30;99.90;;;;;;5005435;28;20239;-48
2023/12/15 00:46:29;;;;;;;39.75;24.30;;;7.30;99.90;;;;;;5003012;28;20200;-47
2023/12/15 00:48:55;;;;;;;40.75;24.33;;;7.40;99.90;;;;;;5004824;28;20292;-46
2023/12/15 00:51:21;;;;;;;39.55;23.95;;;7.40;99.90;;;;;;5004485;28;20696;-46
2023/12/15 00:53:47;;;;;;;39.33;24.55;;;7.40;99.90;;;;;;5003429;28;20193;-43
2023/12/15 00:56:13;;;;;;;40.17;24.33;;;7.40;99.90;;;;;;5004482;28;20271;-45
2023/12/15 00:58:39;;;;;;;41.75;25.63;;;7.40;99.90;;;;;;5003951;28;20187;-47
2023/12/15 01:01:06;;;;;;;41.25;25.35;;;7.40;99.90;;;;;;5004664;28;20672;-49
2023/12/15 01:03:31;;;;;;;46.53;27.02;;;7.40;99.90;;;;;;5003811;28;20247;-49
2023/12/15 01:05:57;;;;;;;46.28;26.30;;;7.50;99.90;;;;;;5003965;28;20608;-43
2023/12/15 01:08:24;;;;;;;46.75;26.92;;;7.40;99.90;;;;;;5004452;28;20242;-48
2023/12/15 01:10:50;;;;;;;45.67;26.85;;;7.40;99.90;;;;;;5003841;28;20193;-46
2023/12/15 01:13:16;;;;;;;47.80;27.83;;;7.50;99.90;;;;;;5003869;28;20265;-49
2023/12/15 01:15:42;;;;;;;51.15;28.45;;;7.50;99.90;;;;;;4987140;28;20192;-44
2023/12/15 01:18:08;;;;;;;55.95;28.75;;;7.50;99.90;;;;;;5002886;28;20283;-45
2023/12/15 01:20:34;;;;;;;52.00;28.45;;;7.50;99.90;;;;;;5004401;28;20279;-44
2023/12/15 01:23:00;;;;;;;51.00;28.63;;;7.50;99.90;;;;;;5004016;28;20235;-42
2023/12/15 01:25:26;;;;;;;51.08;29.27;;;7.50;99.90;;;;;;5018573;28;20240;-45
2023/12/15 01:27:52;;;;;;;53.00;29.73;;;7.50;99.90;;;;;;5003492;28;20657;-44
2023/12/15 01:30:18;;;;;;;51.25;30.08;;;7.50;99.90;;;;;;5004458;28;20184;-45
2023/12/15 01:32:43;;;;;;;57.40;30.05;;;7.60;99.90;;;;;;5004045;28;20607;-46
2023/12/15 01:35:09;;;;;;;57.95;30.52;;;7.60;99.90;;;;;;5002975;28;20189;-43
2023/12/15 01:37:35;;;;;;;59.15;31.70;;;7.60;99.90;;;;;;5003862;28;20197;-44
2023/12/15 01:40:02;;;;;;;57.42;30.85;;;7.60;99.90;;;;;;5000733;28;20189;-45
2023/12/15 01:42:28;;;;;;;55.10;30.10;;;7.60;99.90;;;;;;5003400;28;20263;-44
2023/12/15 01:44:54;;;;;;;58.80;31.65;;;7.60;99.90;;;;;;5002993;28;20224;-49
2023/12/15 01:47:24;;;;;;;61.63;33.25;;;7.60;99.90;;;;;;5002852;28;20606;-47
2023/12/15 01:49:51;;;;;;;63.50;34.75;;;7.70;99.90;;;;;;5003262;28;20547;-42
2023/12/15 01:52:18;;;;;;;68.90;34.45;;;7.70;99.90;;;;;;5003285;28;20239;-42
2023/12/15 01:54:44;;;;;;;63.03;33.65;;;7.70;99.90;;;;;;5002879;28;20200;-43
2023/12/15 01:57:10;;;;;;;61.85;32.20;;;7.70;99.90;;;;;;5003346;28;20184;-43
2023/12/15 01:59:51;;;;;;;60.70;32.65;;;7.70;99.90;;;;;;5001807;28;20220;-46
2023/12/15 02:02:17;;;;;;;63.25;32.95;;;7.80;99.90;;;;;;5003140;28;20189;-47
2023/12/15 02:04:44;;;;;;;59.33;33.13;;;7.70;99.90;;;;;;5002929;28;20219;-48
2023/12/15 02:07:10;;;;;;;70.10;34.60;;;7.80;99.90;;;;;;5002108;28;20227;-45
2023/12/15 02:09:38;;;;;;;65.72;33.65;;;7.70;99.90;;;;;;5000538;28;20570;-51
2023/12/15 02:12:05;;;;;;;72.72;34.08;;;7.80;99.90;;;;;;5003078;28;20208;-50
2023/12/15 02:14:31;;;;;;;64.72;33.88;;;7.80;99.90;;;;;;5003306;28;20262;-48
2023/12/15 02:16:57;;;;;;;63.92;34.38;;;7.80;99.90;;;;;;5003249;28;20192;-46
2023/12/15 02:19:23;;;;;;;63.58;32.90;;;7.80;99.90;;;;;;5002973;28;20279;-44
2023/12/15 02:21:49;;;;;;;61.13;33.20;;;7.80;99.90;;;;;;5002706;28;20188;-42
2023/12/15 02:24:15;;;;;;;66.72;33.20;;;7.80;99.90;;;;;;5002567;28;20184;-44
2023/12/15 02:26:41;;;;;;;71.75;32.40;;;7.80;99.90;;;;;;5002151;28;20294;-44
2023/12/15 02:29:07;;;;;;;68.55;32.88;;;7.90;99.90;;;;;;5002736;28;20206;-48
2023/12/15 02:31:33;;;;;;;68.97;33.92;;;7.80;99.90;;;;;;5000122;28;20223;-45
2023/12/15 02:33:59;;;;;;;70.47;36.60;;;7.80;99.90;;;;;;5003135;28;20682;-48
2023/12/15 02:36:25;;;;;;;67.53;34.47;;;7.80;99.90;;;;;;5002413;28;20275;-49
2023/12/15 02:38:51;;;;;;;73.53;35.47;;;7.90;99.90;;;;;;5002438;28;20192;-44
2023/12/15 02:41:17;;;;;;;68.45;35.28;;;7.90;99.90;;;;;;5001989;28;20188;-50
2023/12/15 02:43:43;;;;;;;84.90;36.47;;;7.90;99.90;;;;;;5001359;28;20195;-50
2023/12/15 02:46:09;;;;;;;73.40;35.22;;;7.90;99.90;;;;;;5001549;28;20205;-44
2023/12/15 02:48:35;;;;;;;68.93;35.00;;;7.90;99.90;;;;;;5002246;28;20236;-45
2023/12/15 02:51:01;;;;;;;68.32;34.92;;;7.90;99.90;;;;;;5001367;28;20200;-43
2023/12/15 02:53:28;;;;;;;72.32;34.20;;;7.90;99.90;;;;;;5002558;28;20202;-46
2023/12/15 02:55:54;;;;;;;62.45;32.28;;;7.90;99.90;;;;;;5001805;28;20343;-46
2023/12/15 02:58:19;;;;;;;68.45;32.97;;;7.90;99.90;;;;;;5002653;28;20212;-46
2023/12/15 03:00:48;;;;;;;62.40;32.90;;;8.00;99.90;;;;;;5002022;28;20201;-45
2023/12/15 03:03:14;;;;;;;68.97;32.17;;;7.90;99.90;;;;;;5001296;28;20204;-42
2023/12/15 03:05:40;;;;;;;66.85;31.77;;;7.90;99.90;;;;;;5001981;28;20239;-43
2023/12/15 03:08:07;;;;;;;63.00;31.02;;;8.00;99.90;;;;;;5001993;28;21162;-45
2023/12/15 03:10:33;;;;;;;65.07;31.05;;;7.90;99.90;;;;;;5001913;28;20192;-48
2023/12/15 03:12:58;;;;;;;59.72;31.98;;;7.90;99.90;;;;;;5002393;28;20196;-45
2023/12/15 03:15:26;;;;;;;67.70;32.25;;;7.90;99.90;;;;;;5001702;28;20207;-48
2023/12/15 03:17:52;;;;;;;66.82;32.95;;;7.90;99.90;;;;;;4999975;28;20568;-49
2023/12/15 03:20:18;;;;;;;69.07;32.50;;;7.90;99.90;;;;;;5002106;28;20211;-51
2023/12/15 03:22:44;;;;;;;57.25;30.95;;;7.90;99.90;;;;;;5002405;28;20196;-48
2023/12/15 03:25:10;;;;;;;62.75;31.92;;;7.80;99.90;;;;;;5001318;28;20204;-44
2023/12/15 03:27:36;;;;;;;67.32;33.47;;;7.70;99.90;;;;;;5001742;28;20236;-44
2023/12/15 03:30:03;;;;;;;66.88;33.40;;;7.70;99.90;;;;;;5002795;28;20192;-49
2023/12/15 03:32:28;;;;;;;73.97;33.78;;;7.60;99.90;;;;;;5001812;28;20257;-44
2023/12/15 03:34:54;;;;;;;74.53;34.85;;;7.60;99.90;;;;;;5001582;28;20255;-43
2023/12/15 03:37:20;;;;;;;72.40;34.30;;;7.60;99.90;;;;;;5001882;28;20203;-46
2023/12/15 03:39:46;;;;;;;67.93;33.97;;;7.50;99.90;;;;;;5001337;28;20242;-43
2023/12/15 03:42:12;;;;;;;61.90;32.47;;;7.50;99.90;;;;;;5000289;28;20677;-45
2023/12/15 03:44:39;;;;;;;72.82;33.08;;;7.40;99.90;;;;;;5000863;28;20197;-46
2023/12/15 03:47:06;;;;;;;69.25;34.55;;;7.40;99.90;;;;;;4984000;28;20250;-49
2023/12/15 03:49:33;;;;;;;78.32;33.70;;;7.40;99.90;;;;;;5001707;28;20184;-46
2023/12/15 03:51:59;;;;;;;69.00;33.67;;;7.30;99.90;;;;;;5001911;28;20211;-42
2023/12/15 03:54:25;;;;;;;71.45;34.85;;;7.30;99.90;;;;;;5001140;28;20645;-44
2023/12/15 03:56:56;;;;;;;70.13;34.50;;;7.30;99.90;;;;;;5001640;28;20848;-53
2023/12/15 03:59:22;;;;;;;68.85;34.00;;;7.30;99.90;;;;;;5001925;28;20266;-46
2023/12/15 04:01:48;;;;;;;67.57;34.58;;;7.30;99.90;;;;;;5001957;28;20216;-43
2023/12/15 04:04:14;;;;;;;70.68;33.97;;;7.30;99.90;;;;;;5001642;28;20189;-47
2023/12/15 04:06:40;;;;;;;69.65;34.53;;;7.20;99.90;;;;;;5001380;28;20557;-45
2023/12/15 04:09:09;;;;;;;79.47;34.97;;;7.20;99.90;;;;;;5001503;28;20191;-45
2023/12/15 04:11:38;;;;;;;74.38;36.22;;;7.20;99.90;;;;;;5001093;28;20192;-49
2023/12/15 04:14:05;;;;;;;69.75;33.35;;;7.20;99.90;;;;;;5016538;28;20243;-42
2023/12/15 04:16:31;;;;;;;63.83;34.55;;;7.20;99.90;;;;;;5001459;28;20192;-46
2023/12/15 04:18:58;;;;;;;72.03;33.63;;;7.20;99.90;;;;;;4999384;28;21024;-44
2023/12/15 04:21:25;;;;;;;73.80;31.60;;;7.20;99.90;;;;;;5001253;28;20954;-47
2023/12/15 04:23:51;;;;;;;67.88;32.63;;;7.10;99.90;;;;;;5001035;28;20215;-46
2023/12/15 04:26:18;;;;;;;67.78;31.20;;;7.10;99.90;;;;;;5015088;28;20224;-42
2023/12/15 04:28:44;;;;;;;62.22;31.80;;;7.10;99.90;;;;;;5001319;28;20199;-45
2023/12/15 04:31:13;;;;;;;65.47;30.75;;;7.10;99.90;;;;;;5016532;28;20271;-44
2023/12/15 04:33:39;;;;;;;62.47;31.73;;;7.00;99.90;;;;;;5003728;28;20193;-43
2023/12/15 04:36:06;;;;;;;60.45;31.10;;;7.00;99.90;;;;;;5003618;28;20180;-41
2023/12/15 04:38:31;;;;;;;66.57;32.15;;;7.00;99.90;;;;;;5005169;28;20278;-52
2023/12/15 04:40:57;;;;;;;70.55;32.78;;;7.00;99.90;;;;;;5003157;28;20279;-47
2023/12/15 04:43:23;;;;;;;72.43;31.83;;;6.90;99.90;;;;;;5002986;28;20196;-43
2023/12/15 04:45:49;;;;;;;75.03;32.03;;;7.00;99.90;;;;;;5004742;28;20710;-50
2023/12/15 04:48:15;;;;;;;71.30;31.95;;;7.10;99.90;;;;;;5019989;28;20681;-43
2023/12/15 04:50:41;;;;;;;68.45;31.95;;;7.10;99.90;;;;;;5004636;28;20203;-45
2023/12/15 04:53:07;;;;;;;65.45;29.92;;;7.10;99.90;;;;;;5004313;28;20211;-50
2023/12/15 04:55:33;;;;;;;64.47;30.92;;;7.10;99.90;;;;;;5003464;28;20196;-47
2023/12/15 04:58:00;;;;;;;59.28;29.77;;;7.20;99.90;;;;;;5003944;28;20199;-46
2023/12/15 05:00:26;;;;;;;64.50;30.00;;;7.10;99.90;;;;;;5002688;28;20197;-45
2023/12/15 05:02:52;;;;;;;72.13;29.05;;;7.00;99.90;;;;;;5003991;28;20326;-43
2023/12/15 05:05:18;;;;;;;66.68;29.08;;;7.10;99.90;;;;;;4988393;28;20216;-43
2023/12/15 05:07:44;;;;;;;55.40;27.55;;;7.00;99.90;;;;;;5003818;28;20180;-43
2023/12/15 05:10:10;;;;;;;69.80;28.35;;;7.10;99.90;;;;;;5019384;28;20181;-49
2023/12/15 05:12:37;;;;;;;57.88;28.30;;;7.00;99.90;;;;;;5004077;28;20546;-46
2023/12/15 05:15:04;;;;;;;61.53;26.77;;;7.00;99.90;;;;;;5003535;28;20498;-46
2023/12/15 05:17:33;;;;;;;65.07;27.02;;;7.00;99.90;;;;;;5004223;28;20200;-46
2023/12/15 05:20:01;;;;;;;52.60;26.73;;;6.90;99.90;;;;;;5001654;28;20653;-47
2023/12/15 05:22:28;;;;;;;61.17;27.65;;;6.90;99.90;;;;;;5003184;28;20203;-45
2023/12/15 05:24:54;;;;;;;61.65;26.58;;;6.90;99.90;;;;;;5018981;28;20195;-52
2023/12/15 05:27:20;;;;;;;57.97;26.88;;;6.80;99.90;;;;;;5003862;28;20224;-43
2023/12/15 05:29:46;;;;;;;68.20;26.77;;;6.80;99.90;;;;;;5003547;28;20242;-47
2023/12/15 05:32:13;;;;;;;64.32;25.75;;;6.80;99.90;;;;;;5002804;28;20671;-45
2023/12/15 05:34:39;;;;;;;64.40;25.88;;;6.70;99.90;;;;;;5003137;28;20184;-44
2023/12/15 05:37:05;;;;;;;53.25;24.17;;;6.70;99.90;;;;;;5003405;28;20230;-45
2023/12/15 05:39:31;;;;;;;61.08;25.23;;;6.80;99.90;;;;;;5003438;28;20195;-50
2023/12/15 05:41:57;;;;;;;67.20;25.20;;;6.70;99.90;;;;;;5002662;28;21393;-49
2023/12/15 05:44:23;;;;;;;64.88;25.67;;;6.80;99.90;;;;;;5003046;28;20196;-47
2023/12/15 05:46:49;;;;;;;65.68;25.35;;;6.80;99.90;;;;;;5003895;28;20324;-45
2023/12/15 05:49:15;;;;;;;57.60;24.00;;;6.70;99.90;;;;;;5018514;28;20218;-42
2023/12/15 05:51:48;;;;;;;57.08;23.88;;;6.70;99.90;;;;;;5003065;28;20212;-47
2023/12/15 05:54:14;;;;;;;58.92;24.17;;;6.70;99.90;;;;;;5003126;28;20549;-47
2023/12/15 05:56:39;;;;;;;55.63;23.45;;;6.70;99.90;;;;;;5004414;28;20222;-41
2023/12/15 05:59:05;;;;;;;62.45;23.77;;;6.70;99.90;;;;;;5001597;28;20307;-46
2023/12/15 06:01:31;;;;;;;66.05;24.35;;;6.70;99.90;;;;;;5003311;28;20196;-45
2023/12/15 06:03:57;;;;;;;57.05;23.55;;;6.70;99.90;;;;;;5002493;28;20290;-49
2023/12/15 06:06:23;;;;;;;65.65;23.75;;;6.70;99.90;;;;;;5003333;28;20660;-47
2023/12/15 06:08:50;;;;;;;62.13;24.05;;;6.70;99.90;;;;;;5002386;28;20279;-46
2023/12/15 06:11:17;;;;;;;68.65;23.55;;;6.80;99.90;;;;;;5017779;28;20680;-48
2023/12/15 06:13:43;;;;;;;62.17;22.20;;;6.70;99.90;;;;;;5001760;28;20185;-46
2023/12/15 06:16:19;;;;;;;60.05;22.27;;;6.80;99.90;;;;;;5002645;28;20193;-47
2023/12/15 06:18:46;;;;;;;60.75;22.45;;;6.80;99.90;;;;;;4999963;28;20198;-46
2023/12/15 06:21:26;;;;;;;55.88;21.83;;;6.80;99.90;;;;;;5018940;28;20606;-47
2023/12/15 06:23:52;;;;;;;55.60;21.50;;;6.80;99.90;;;;;;5000342;28;20253;-49
2023/12/15 06:26:19;;;;;;;58.67;21.15;;;6.90;99.90;;;;;;5002622;28;20247;-45
2023/12/15 06:28:46;;;;;;;50.92;20.38;;;6.90;99.90;;;;;;5003542;28;20235;-46
2023/12/15 06:31:12;;;;;;;58.55;20.77;;;6.90;99.90;;;;;;5003295;28;20224;-45
2023/12/15 06:33:38;;;;;;;64.80;20.75;;;6.90;99.90;;;;;;5002014;28;22023;-45
2023/12/15 06:36:05;;;;;;;56.28;19.83;;;7.00;99.90;;;;;;5002321;28;20197;-47
2023/12/15 06:38:31;;;;;;;49.70;19.33;;;7.00;99.90;;;;;;5002622;28;20211;-47
2023/12/15 06:40:57;;;;;;;57.95;20.35;;;7.00;99.90;;;;;;5002395;28;20188;-46
2023/12/15 06:43:23;;;;;;;62.00;20.13;;;7.00;99.90;;;;;;5001655;28;20259;-44
2023/12/15 06:45:49;;;;;;;51.30;19.45;;;7.00;99.90;;;;;;5002100;28;20216;-52
2023/12/15 06:48:15;;;;;;;57.03;20.48;;;6.90;99.90;;;;;;5001303;28;20266;-46
2023/12/15 06:50:40;;;;;;;58.35;20.48;;;6.90;99.90;;;;;;5001823;28;20682;-46
2023/12/15 06:53:06;;;;;;;56.78;19.58;;;6.90;99.90;;;;;;5001165;28;20746;-47
2023/12/15 06:55:32;;;;;;;53.95;20.40;;;6.90;99.90;;;;;;5003858;28;20188;-52
2023/12/15 06:57:58;;;;;;;55.60;18.05;;;6.90;99.90;;;;;;5001814;28;20184;-44
2023/12/15 07:00:24;;;;;;;65.63;20.75;;;6.90;99.90;;;;;;5002336;28;20208;-43
2023/12/15 07:02:50;;;;;;;60.20;20.17;;;6.90;99.90;;;;;;5001886;28;20196;-51
2023/12/15 07:05:16;;;;;;;54.80;19.80;;;6.90;99.90;;;;;;5001264;28;20215;-44
2023/12/15 07:07:42;;;;;;;50.88;19.38;;;6.90;99.90;;;;;;5001410;28;20216;-42
2023/12/15 07:10:08;;;;;;;49.65;20.83;;;6.90;99.90;;;;;;5001163;28;20330;-53
2023/12/15 07:12:33;;;;;;;57.58;19.42;;;7.00;99.90;;;;;;4998610;28;20266;-43
2023/12/15 07:15:00;;;;;;;51.78;19.25;;;7.00;99.90;;;;;;4999713;28;20197;-44
2023/12/15 07:17:26;;;;;;;57.97;19.95;;;7.00;99.90;;;;;;4998556;28;20614;-45
2023/12/15 07:19:52;;;;;;;53.80;19.67;;;6.90;99.90;;;;;;5001617;28;20214;-45
2023/12/15 07:22:18;;;;;;;62.40;19.63;;;6.90;99.90;;;;;;5000805;28;20199;-44
2023/12/15 07:24:43;;;;;;;64.32;19.80;;;6.90;99.90;;;;;;5001872;28;20201;-43
2023/12/15 07:27:09;;;;;;;57.28;19.52;;;6.80;99.90;;;;;;5001188;28;20231;-48
2023/12/15 07:29:35;;;;;;;52.28;17.70;;;6.80;99.90;;;;;;5000979;28;20207;-46
2023/12/15 07:32:01;;;;;;;56.78;18.88;;;6.80;99.90;;;;;;5002126;28;20189;-46
2023/12/15 07:34:27;;;;;;;49.38;18.75;;;6.70;99.90;;;;;;5000288;28;20687;-45
2023/12/15 07:36:53;;;;;;;59.05;18.30;;;6.70;99.90;;;;;;5000765;28;20189;-47
2023/12/15 07:39:21;;;;;;;56.45;17.73;;;6.70;99.90;;;;;;5001899;28;20196;-46
2023/12/15 07:41:48;;;;;;;56.45;17.05;;;6.70;99.90;;;;;;5001278;28;20203;-43
2023/12/15 07:44:14;;;;;;;51.90;17.08;;;6.70;99.90;;;;;;5000524;28;20184;-44
2023/12/15 07:46:41;;;;;;;54.88;16.05;;;6.70;99.90;;;;;;5001288;28;20281;-46
2023/12/15 07:49:08;;;;;;;45.33;15.68;;;6.70;99.90;;;;;;5016195;28;20188;-48
2023/12/15 07:51:34;;;;;;;57.65;16.13;;;6.70;99.90;;;;;;5015888;28;20787;-44
2023/12/15 07:54:00;;;;;;;53.00;15.93;;;6.70;99.90;;;;;;5001486;28;20196;-45
2023/12/15 07:56:27;;;;;;;59.42;16.40;;;6.70;99.90;;;;;;5001040;28;20196;-43
2023/12/15 07:58:54;;;;;;;41.80;15.32;;;6.70;99.90;;;;;;5000770;28;20644;-46
2023/12/15 08:01:21;;;;;;;49.70;14.70;;;6.70;99.90;;;;;;5001810;28;20197;-41
2023/12/15 08:03:47;;;;;;;40.47;14.10;;;6.80;99.90;;;;;;5004104;28;20205;-40
2023/12/15 08:06:14;;;;;;;49.35;14.43;;;6.80;99.90;;;;;;5000337;28;20205;-46
2023/12/15 08:08:41;;;;;;;49.10;14.90;;;6.80;99.90;;;;;;5004414;28;20183;-39
2023/12/15 08:11:07;;;;;;;43.30;14.48;;;6.80;99.90;;;;;;4988827;28;21033;-40
2023/12/15 08:13:33;;;;;;;49.88;14.68;;;6.80;99.90;;;;;;5004907;28;20246;-42
2023/12/15 08:15:59;;;;;;;53.42;14.00;;;6.80;99.90;;;;;;5005821;28;20185;-39
2023/12/15 08:18:25;;;;;;;45.90;13.07;;;6.90;99.90;;;;;;5002927;28;20291;-39
2023/12/15 08:20:51;;;;;;;56.35;13.05;;;6.90;99.90;;;;;;5002965;28;20219;-41
2023/12/15 08:23:17;;;;;;;46.58;11.60;;;7.00;99.90;;;;;;5004726;28;20247;-41
2023/12/15 08:25:43;;;;;;;48.97;13.20;;;7.00;99.90;;;;;;5004286;28;20256;-41
2023/12/15 08:28:11;;;;;;;52.72;11.93;;;7.10;99.90;;;;;;5004124;28;20256;-41
2023/12/15 08:30:38;;;;;;;35.58;10.95;;;7.10;99.90;;;;;;5003603;28;20185;-39
2023/12/15 08:33:04;;;;;;;48.15;11.13;;;7.20;99.90;;;;;;5004633;28;20185;-40
2023/12/15 08:35:30;;;;;;;52.97;12.45;;;7.20;99.90;;;;;;5004241;28;20283;-39
2023/12/15 08:37:56;;;;;;;45.85;12.07;;;7.30;99.90;;;;;;5004418;28;20570;-40
2023/12/15 08:40:23;;;;;;;53.65;11.80;;;7.30;99.90;;;;;;5004130;28;20308;-41
2023/12/15 08:42:49;;;;;;;42.63;11.77;;;7.30;99.90;;;;;;5004446;28;20192;-40
2023/12/15 08:45:15;;;;;;;49.28;11.80;;;7.30;99.90;;;;;;5003452;28;20327;-41
2023/12/15 08:47:41;;;;;;;43.28;11.18;;;7.40;99.90;;;;;;5004731;28;20189;-41
2023/12/15 08:50:07;;;;;;;48.83;12.45;;;7.40;99.90;;;;;;5004148;28;20561;-40
2023/12/15 08:52:33;;;;;;;43.88;11.18;;;7.40;99.90;;;;;;5001434;28;20193;-44
2023/12/15 08:55:00;;;;;;;37.65;11.52;;;7.40;99.90;;;;;;5004138;28;20196;-43
2023/12/15 08:57:26;;;;;;;44.83;11.73;;;7.50;99.90;;;;;;5002352;28;20223;-40
2023/12/15 08:59:52;;;;;;;39.50;10.70;;;7.40;99.90;;;;;;5018743;28;20188;-42
2023/12/15 09:02:18;;;;;;;41.33;10.73;;;7.50;99.90;;;;;;5004105;28;20200;-42
2023/12/15 09:04:44;;;;;;;51.75;10.35;;;7.50;99.90;;;;;;5002278;28;20187;-40
2023/12/15 09:07:10;;;;;;;39.00;10.43;;;7.50;99.90;;;;;;5003346;28;20220;-43
2023/12/15 09:09:37;;;;;;;42.60;10.63;;;7.50;99.90;;;;;;5004203;28;20180;-40
2023/12/15 09:12:04;;;;;;;36.35;10.48;;;7.60;99.90;;;;;;5003705;28;20207;-39
2023/12/15 09:14:30;;;;;;;36.45;10.52;;;7.60;99.90;;;;;;5003011;28;20578;-41
2023/12/15 09:16:57;;;;;;;47.72;10.73;;;7.60;99.90;;;;;;5002617;28;20211;-41
2023/12/15 09:19:26;;;;;;;49.90;10.68;;;7.60;99.90;;;;;;5002214;28;20234;-39
2023/12/15 09:21:52;;;;;;;38.40;9.98;;;7.70;99.90;;;;;;5004180;28;20243;-40
2023/12/15 09:24:19;;;;;;;40.97;9.65;;;7.70;99.90;;;;;;5002700;28;20184;-40
2023/12/15 09:26:45;;;;;;;44.20;10.15;;;7.70;99.90;;;;;;5003061;28;20696;-42
2023/12/15 09:29:12;;;;;;;40.63;9.88;;;7.70;99.90;;;;;;5003692;28;20241;-40
2023/12/15 09:31:40;;;;;;;44.13;10.70;;;7.70;99.90;;;;;;5003332;28;20219;-38
2023/12/15 09:34:06;;;;;;;38.67;10.23;;;7.80;99.90;;;;;;4984224;28;20188;-41
2023/12/15 09:36:32;;;;;;;47.05;11.10;;;7.80;99.90;;;;;;5003353;28;20684;-41
2023/12/15 09:38:58;;;;;;;35.17;9.95;;;7.80;99.90;;;;;;5004328;28;20231;-40
2023/12/15 09:41:24;;;;;;;42.47;10.25;;;7.80;99.90;;;;;;5003484;28;20225;-42
2023/12/15 09:43:50;;;;;;;41.97;10.43;;;7.90;99.90;;;;;;5018215;28;20319;-40
2023/12/15 09:46:16;;;;;;;38.15;9.15;;;7.90;99.90;;;;;;5002231;28;20584;-43
2023/12/15 09:48:44;;;;;;;36.28;9.07;;;7.90;99.90;;;;;;5000986;28;20307;-41
2023/12/15 09:51:22;;;;;;;42.25;9.20;;;8.00;99.90;;;;;;5003247;28;20546;-41
2023/12/15 09:53:49;;;;;;;34.80;8.63;;;8.00;99.90;;;;;;5000699;28;20275;-39
2023/12/15 09:56:15;;;;;;;38.45;8.85;;;8.10;99.90;;;;;;5001797;28;20282;-42
2023/12/15 09:58:42;;;;;;;43.40;9.93;;;8.10;99.90;;;;;;5001660;28;20209;-41
2023/12/15 10:01:10;;;;;;;39.97;10.75;;;8.10;99.90;;;;;;5003184;28;21032;-40
2023/12/15 10:03:35;;;;;;;46.53;9.98;;;8.20;99.90;;;;;;5002006;28;20942;-40
2023/12/15 10:06:02;;;;;;;46.20;10.13;;;8.20;99.90;;;;;;5018045;28;20232;-41
2023/12/15 10:08:48;;;;;;;51.45;9.98;;;8.30;99.90;;;;;;5003308;28;20180;-39
2023/12/15 10:11:16;;;;;;;50.55;11.35;;;8.40;99.90;;;;;;5002988;28;20211;-40
2023/12/15 10:13:42;;;;;;;45.15;10.27;;;8.50;99.90;;;;;;5002173;28;20279;-41
2023/12/15 10:16:11;;;;;;;39.38;10.00;;;8.50;99.90;;;;;;5001128;28;20298;-40
2023/12/15 10:18:38;;;;;;;47.95;9.88;;;8.60;99.90;;;;;;5001830;28;20299;-42
2023/12/15 10:21:05;;;;;;;38.30;9.63;;;8.70;99.90;;;;;;5002023;28;20303;-41
2023/12/15 10:23:32;;;;;;;47.95;11.30;;;8.70;99.90;;;;;;5001907;28;21298;-43
2023/12/15 10:25:59;;;;;;;40.25;9.48;;;8.80;99.90;;;;;;5002107;28;20232;-40
2023/12/15 10:28:25;;;;;;;40.25;9.30;;;8.90;99.90;;;;;;5001832;28;20644;-40
2023/12/15 10:30:51;;;;;;;41.92;9.75;;;8.80;99.90;;;;;;5001641;28;20218;-42
2023/12/15 10:33:18;;;;;;;37.28;8.98;;;8.90;99.90;;;;;;5001833;28;20325;-39
2023/12/15 10:35:47;;;;;;;35.50;8.45;;;8.90;99.90;;;;;;5001975;28;20192;-42
2023/12/15 10:38:14;;;;;;;45.35;9.00;;;8.90;99.90;;;;;;5001690;28;20395;-41
2023/12/15 10:40:42;;;;;;;43.63;7.85;;;9.00;99.90;;;;;;5001565;28;20242;-40
2023/12/15 10:43:10;;;;;;;38.65;7.47;;;9.00;99.90;;;;;;5001842;28;20560;-40
2023/12/15 10:45:37;;;;;;;31.45;7.60;;;9.10;99.90;;;;;;5000544;28;20212;-39
2023/12/15 10:48:03;;;;;;;32.90;8.35;;;9.10;99.90;;;;;;5002195;28;20204;-43
2023/12/15 10:50:30;;;;;;;41.83;7.78;;;9.10;99.90;;;;;;5002303;28;20198;-43
2023/12/15 10:52:57;;;;;;;44.90;8.35;;;9.20;99.90;;;;;;5001782;28;20184;-40
2023/12/15 10:55:25;;;;;;;40.05;8.35;;;9.20;99.90;;;;;;5002532;28;20560;-41
2023/12/15 10:57:52;;;;;;;39.83;8.10;;;9.20;99.90;;;;;;5001140;28;20195;-41
2023/12/15 11:00:18;;;;;;;37.08;8.70;;;9.30;99.90;;;;;;5001745;28;20193;-40
2023/12/15 11:02:48;;;;;;;31.58;7.65;;;9.30;99.90;;;;;;5001727;28;20195;-41
2023/12/15 11:05:16;;;;;;;47.60;8.73;;;9.30;99.90;;;;;;5001991;28;20214;-42
2023/12/15 11:07:42;;;;;;;43.25;8.70;;;9.40;99.90;;;;;;5001792;28;20211;-41
2023/12/15 11:10:09;;;;;;;41.03;8.60;;;9.40;99.90;;;;;;5001555;28;20181;-41
2023/12/15 11:12:37;;;;;;;43.95;9.20;;;9.40;99.90;;;;;;5000677;28;20377;-41
2023/12/15 11:15:06;;;;;;;46.70;9.40;;;9.50;99.90;;;;;;5001333;28;20287;-39
2023/12/15 11:17:33;;;;;;;35.38;8.02;;;9.50;99.90;;;;;;5000432;28;20192;-39
2023/12/15 11:20:12;;;;;;;39.88;8.43;;;9.50;99.90;;;;;;5001849;28;20273;-42
2023/12/15 11:23:08;;;;;;;42.63;8.30;;;9.50;99.90;;;;;;5001550;28;20203;-41
2023/12/15 11:25:46;;;;;;;34.72;7.57;;;9.50;99.90;;;;;;5001464;28;20219;-42
2023/12/15 11:28:15;;;;;;;39.25;7.63;;;9.50;99.90;;;;;;5001421;28;20207;-38
2023/12/15 11:30:44;;;;;;;38.42;7.20;;;9.50;99.90;;;;;;4999685;28;20539;-40
2023/12/15 11:33:39;;;;;;;44.60;7.82;;;9.60;99.90;;;;;;5000293;28;20181;-40
2023/12/15 11:36:12;;;;;;;42.70;8.27;;;9.60;99.90;;;;;;4999891;28;20196;-40
2023/12/15 11:38:38;;;;;;;36.70;7.47;;;9.60;99.90;;;;;;4999686;28;20196;-40
2023/12/15 11:41:05;;;;;;;33.55;7.45;;;9.60;99.90;;;;;;5001677;28;20196;-40
2023/12/15 11:43:32;;;;;;;44.33;7.85;;;9.70;99.90;;;;;;5005095;28;20203;-42
2023/12/15 11:45:58;;;;;;;35.17;8.45;;;9.70;99.90;;;;;;5003621;28;20208;-41
2023/12/15 11:48:25;;;;;;;42.10;7.32;;;9.70;99.90;;;;;;5003795;28;20184;-39
2023/12/15 11:50:51;;;;;;;44.45;8.73;;;9.70;99.90;;;;;;5005465;28;20275;-43
2023/12/15 11:53:18;;;;;;;42.70;8.10;;;9.70;99.90;;;;;;5006849;28;20272;-40
2023/12/15 11:55:46;;;;;;;33.95;7.43;;;9.70;99.90;;;;;;5005171;28;20201;-41
2023/12/15 11:58:18;;;;;;;42.75;7.53;;;9.70;99.90;;;;;;5005950;28;20246;-40
2023/12/15 12:00:44;;;;;;;41.85;7.22;;;9.70;99.90;;;;;;5004727;28;20192;-43
2023/12/15 12:03:12;;;;;;;45.30;8.40;;;9.70;99.90;;;;;;5004802;28;20322;-40
2023/12/15 12:05:42;;;;;;;38.63;7.65;;;9.70;99.90;;;;;;5004418;28;20212;-41
2023/12/15 12:08:09;;;;;;;50.22;8.32;;;9.70;99.90;;;;;;5004911;28;20188;-40
2023/12/15 12:10:39;;;;;;;39.08;8.07;;;9.70;99.90;;;;;;5003757;28;20211;-41
2023/12/15 12:13:10;;;;;;;35.60;8.02;;;9.70;99.90;;;;;;5004399;28;20238;-40
2023/12/15 12:15:50;;;;;;;53.47;9.40;;;9.80;99.90;;;;;;5005050;28;20665;-41
2023/12/15 12:18:18;;;;;;;42.20;9.02;;;9.80;99.90;;;;;;5004202;28;20242;-42
2023/12/15 12:20:44;;;;;;;30.83;8.65;;;9.80;99.90;;;;;;5021318;28;20215;-42
2023/12/15 12:23:10;;;;;;;39.55;9.27;;;9.80;99.90;;;;;;5020793;28;20192;-42
2023/12/15 12:25:40;;;;;;;34.75;8.88;;;9.80;99.90;;;;;;5003342;28;20208;-43
2023/12/15 12:28:06;;;;;;;37.35;8.73;;;9.80;99.90;;;;;;5005674;28;20238;-43
2023/12/15 12:30:32;;;;;;;48.03;9.25;;;9.90;99.90;;;;;;4970703;28;20200;-40
2023/12/15 12:32:58;;;;;;;36.50;8.52;;;9.80;99.90;;;;;;5004091;28;20203;-39
2023/12/15 12:35:24;;;;;;;50.60;8.68;;;9.90;99.90;;;;;;5003859;28;20743;-40